»·PEaware :: N829SM L88-KSBP

N829SM :: L88-KSBP

FLIGHT INFORMATION

Flight Status: Arrived
Operator: Privately registered:
United States
More flights under this callsign
Pilot: Anonymous 23263 (23263)
Aircraft: CESSNA 172 SKYHAWK
(C172)
More flights by this aircraft type
Origin: L88 New Cuyama
United States
Destination: KSBP San Luis Co Regl
United States
More flights between these airports :: More routes between these airports
Route:
File this flight plan on PilotEdge
Remarks: CAT 02 Rating
Altitude:
(Current/Filed)
6,500ft
Speed:
(Current/Filed)
0kts
Departed: 10-Feb-19 11:21 AM
Arrived: 10-Feb-19 12:06 PM
Distance/Time
Traveled:
50nm/0:45
Distance/Time
To Go:
Arrived

Flight Plot

Page will automatically refresh every two minutes.


Map Options




Map Legend


Flown Route
Filed Route
Departure Airport
Arrival Airport
Navaid (VOR, NDB)
Fix

Horizontal Profiles

Position Reports

Time Latitude Longitude Heading Altitude Ground
Speed
10-Feb-19 11:16 34.942531 -119.690466 205 2154ft 0kts
10-Feb-19 11:17 34.941172 -119.688524 116 2162ft 19kts
10-Feb-19 11:18 34.938070 -119.680996 125 2194ft 25kts
10-Feb-19 11:19 34.937705 -119.680085 288 2195ft 0kts
10-Feb-19 11:20 34.941087 -119.688129 300 2384ft 74kts
10-Feb-19 11:21 34.945880 -119.700596 294 3142ft 59kts
10-Feb-19 11:22 34.949871 -119.713844 290 3878ft 38kts
10-Feb-19 11:23 34.951948 -119.725280 296 4183ft 77kts
10-Feb-19 11:24 34.957886 -119.743488 290 4623ft 88kts
10-Feb-19 11:25 34.961927 -119.761051 298 4950ft 103kts
10-Feb-19 11:26 34.970148 -119.782105 296 4967ft 118kts
10-Feb-19 11:27 34.977542 -119.803396 294 5435ft 96kts
10-Feb-19 11:28 34.983254 -119.820859 293 6061ft 78kts
10-Feb-19 11:29 34.988305 -119.836604 292 6421ft 91kts
10-Feb-19 11:30 34.994811 -119.856895 292 6361ft 114kts
10-Feb-19 11:31 35.001941 -119.879465 292 6352ft 115kts
10-Feb-19 11:32 35.009048 -119.902122 292 6352ft 115kts
10-Feb-19 11:33 35.016172 -119.924916 292 6352ft 115kts
10-Feb-19 11:34 35.023274 -119.947683 292 6352ft 115kts
10-Feb-19 11:35 35.030426 -119.970640 292 6352ft 115kts
10-Feb-19 11:36 35.037628 -119.993782 292 6352ft 115kts
10-Feb-19 11:37 35.044841 -120.017031 293 6351ft 115kts
10-Feb-19 11:38 35.052127 -120.040532 294 6349ft 116kts
10-Feb-19 11:39 35.060071 -120.065813 287 6354ft 135kts
10-Feb-19 11:40 35.069036 -120.094793 286 6352ft 143kts
10-Feb-19 11:41 35.078311 -120.124698 284 6350ft 142kts
10-Feb-19 11:42 35.087487 -120.154218 283 6346ft 131kts
10-Feb-19 11:43 35.095504 -120.180039 281 6347ft 114kts
10-Feb-19 11:44 35.102858 -120.203938 280 6343ft 108kts
10-Feb-19 11:45 35.109975 -120.227047 280 6342ft 104kts
10-Feb-19 11:46 35.116869 -120.249438 280 6341ft 101kts
10-Feb-19 11:47 35.123626 -120.271397 280 6341ft 101kts
10-Feb-19 11:48 35.130362 -120.293318 280 6309ft 104kts
10-Feb-19 11:49 35.137683 -120.317194 282 5888ft 119kts
10-Feb-19 11:50 35.145384 -120.342085 283 5362ft 122kts
10-Feb-19 11:51 35.153159 -120.367363 284 4839ft 124kts
10-Feb-19 11:52 35.160959 -120.392745 285 4365ft 121kts
10-Feb-19 11:53 35.167904 -120.415253 284 4333ft 96kts
10-Feb-19 11:54 35.173541 -120.433707 283 4333ft 82kts
10-Feb-19 11:55 35.178459 -120.449742 282 4331ft 69kts
10-Feb-19 11:57 35.183361 -120.466221 285 4167ft 99kts
10-Feb-19 11:58 35.190488 -120.489415 288 3624ft 126kts
10-Feb-19 11:59 35.198445 -120.515219 289 3066ft 132kts
10-Feb-19 12:00 35.206436 -120.541329 290 2507ft 132kts
10-Feb-19 12:01 35.214022 -120.566140 290 1975ft 115kts
10-Feb-19 12:02 35.219791 -120.585177 289 1913ft 79kts
10-Feb-19 12:03 35.221774 -120.602133 272 1567ft 91kts
10-Feb-19 12:04 35.225990 -120.620608 299 868ft 105kts
10-Feb-19 12:05 35.235696 -120.638098 305 221ft 92kts
10-Feb-19 12:06 35.241255 -120.646976 25 216ft 19kts
10-Feb-19 12:07 35.241451 -120.646804 49 216ft 0kts
10-Feb-19 12:08 35.241503 -120.646729 52 216ft 2kts
10-Feb-19 12:09 35.239156 -120.642413 129 216ft 26kts
10-Feb-19 12:10 35.237172 -120.637676 184 216ft 10kts
10-Feb-19 12:11 35.237235 -120.638582 347 216ft 0kts
10-Feb-19 12:11 35.237300 -120.638623 326 216ft 10kts
10-Feb-19 12:13 35.238569 -120.639683 328 216ft 0kts
10-Feb-19 12:14 35.238569 -120.639683 328 216ft 0kts
10-Feb-19 12:15 35.238569 -120.639683 328 216ft 0kts
10-Feb-19 12:15 35.238569 -120.639683 328 216ft 0kts
10-Feb-19 12:16 35.238569 -120.639683 328 216ft 0kts
10-Feb-19 12:18 35.238569 -120.639683 328 216ft 0kts
10-Feb-19 12:19 35.238569 -120.639683 328 216ft 0kts
10-Feb-19 12:19 35.238569 -120.639683 328 216ft 0kts

Navigation Log

Ident Type
Flight plan parsing failed, navigation log unavailable